Pagrindinis puslapis
METAR-TAF:

METAR-TAF

Oro uostai :

Port Sudan, Sudanas

platuma: 19-26N, ilguma: 037-14E, Aukštis: 138 m

Dabartinis oras

Ataskaita buvo paskelbta 51 minutes, ne 11:00 UTC
Vėjas 10 kt iš Šiaurės/Šiaurės Rytų
Temperatūra 36°C
Drėgmė 45%
Slėgis 1010 hPa
Matomumas 10 km arba daugiau
Mažai debesys ne aukštis 4000 ft

METAR: HSPN 141100Z 02010KT 9999 FEW040 36/22 Q1010

Laikas: 14:51 (11:51 UTC)

Prognozė

Ataskaita buvo paskelbta 3 valandos ir 51 minutes, ne 08:00 UTC
Prognozė galioja nuo 14 metu 09 UTC su 15 metu 18 UTC
Vėjas 10 kt iš Rytų/Šiaurės Rytų su gūsio iki 20 kt
Matomumas 10 km arba daugiau
Išsisklaidę debesys ne aukštis 13000 ft
Tapsmas
nuo 14 metu 21 UTC su 14 metu 23 UTC
Vėjas 8 kt iš Šiaurės Vakarų

TAF: HSPN 140800Z 1409/1518 06010G20KT 9999 SCT130 BECMG 1421/1423 32008KT

Orai ataskaitas ir orų prognozės (METAR, TAF).

turimą stotys yra geltonos ir raudonos taškus žemėlapyje.

Perkelti pele per norėdami pamatyti stoties vardą.

Tada spustelėkite, norėdami matyti oro stebėjimo ir prognozės.

Norėdami pakeisti žemėlapį: spustelėkite ant žalios mygtukų su juodo kryžiaus žemyn,; žalią mygtuką su brūkšneliu, jei norite nutolinti; arba žalių rodyklių gretimoms žemėlapius.


METAR-TAF: